sensor_id;sensor_type;location;lat;lon;timestamp;temperature;humidity
19544;DHT22;9917;51.256;7.152;2023-02-08T00:01:23;1.00;99.90
19544;DHT22;9917;51.256;7.152;2023-02-08T00:03:49;2.00;99.90
19544;DHT22;9917;51.256;7.152;2023-02-08T00:06:15;0.90;99.90
19544;DHT22;9917;51.256;7.152;2023-02-08T00:08:43;0.90;99.90
19544;DHT22;9917;51.256;7.152;2023-02-08T00:11:09;0.80;99.90
19544;DHT22;9917;51.256;7.152;2023-02-08T00:13:35;0.70;99.90
19544;DHT22;9917;51.256;7.152;2023-02-08T00:16:01;0.80;99.90
19544;DHT22;9917;51.256;7.152;2023-02-08T00:18:27;0.70;99.90
19544;DHT22;9917;51.256;7.152;2023-02-08T00:20:52;0.70;99.90
19544;DHT22;9917;51.256;7.152;2023-02-08T00:23:18;0.70;99.90
19544;DHT22;9917;51.256;7.152;2023-02-08T00:25:45;0.70;99.90
19544;DHT22;9917;51.256;7.152;2023-02-08T00:28:13;2.00;99.90
19544;DHT22;9917;51.256;7.152;2023-02-08T00:30:40;0.80;99.90
19544;DHT22;9917;51.256;7.152;2023-02-08T00:33:06;0.70;99.90
19544;DHT22;9917;51.256;7.152;2023-02-08T00:35:32;0.90;99.90
19544;DHT22;9917;51.256;7.152;2023-02-08T00:37:58;1.30;99.90
19544;DHT22;9917;51.256;7.152;2023-02-08T00:40:24;1.10;99.90
19544;DHT22;9917;51.256;7.152;2023-02-08T00:42:51;1.00;99.90
19544;DHT22;9917;51.256;7.152;2023-02-08T00:45:17;1.40;99.90
19544;DHT22;9917;51.256;7.152;2023-02-08T00:47:43;0.90;99.90
19544;DHT22;9917;51.256;7.152;2023-02-08T00:50:09;0.80;99.90
19544;DHT22;9917;51.256;7.152;2023-02-08T00:52:35;0.70;99.90
19544;DHT22;9917;51.256;7.152;2023-02-08T00:55:01;0.70;99.90
19544;DHT22;9917;51.256;7.152;2023-02-08T00:59:54;0.70;99.90
19544;DHT22;9917;51.256;7.152;2023-02-08T01:02:19;1.00;99.90
19544;DHT22;9917;51.256;7.152;2023-02-08T01:04:45;0.60;99.90
19544;DHT22;9917;51.256;7.152;2023-02-08T01:07:11;0.60;99.90
19544;DHT22;9917;51.256;7.152;2023-02-08T01:09:37;0.60;99.90
19544;DHT22;9917;51.256;7.152;2023-02-08T01:12:03;0.60;99.90
19544;DHT22;9917;51.256;7.152;2023-02-08T01:14:29;0.50;99.90
19544;DHT22;9917;51.256;7.152;2023-02-08T01:16:56;0.70;99.90
19544;DHT22;9917;51.256;7.152;2023-02-08T01:19:21;0.60;99.90
19544;DHT22;9917;51.256;7.152;2023-02-08T01:21:47;0.60;99.90
19544;DHT22;9917;51.256;7.152;2023-02-08T01:24:13;0.60;99.90
19544;DHT22;9917;51.256;7.152;2023-02-08T01:26:39;0.60;99.90
19544;DHT22;9917;51.256;7.152;2023-02-08T01:29:05;0.50;99.90
19544;DHT22;9917;51.256;7.152;2023-02-08T01:31:32;0.60;99.90
19544;DHT22;9917;51.256;7.152;2023-02-08T01:34:00;0.60;99.90
19544;DHT22;9917;51.256;7.152;2023-02-08T01:36:27;0.70;99.90
19544;DHT22;9917;51.256;7.152;2023-02-08T01:38:53;0.60;99.90
19544;DHT22;9917;51.256;7.152;2023-02-08T01:41:21;0.60;99.90
19544;DHT22;9917;51.256;7.152;2023-02-08T01:45:02;0.70;99.90
19544;DHT22;9917;51.256;7.152;2023-02-08T01:46:53;0.60;99.90
19544;DHT22;9917;51.256;7.152;2023-02-08T01:49:23;0.60;99.90
19544;DHT22;9917;51.256;7.152;2023-02-08T01:51:51;0.70;99.90
19544;DHT22;9917;51.256;7.152;2023-02-08T01:54:19;0.70;99.90
19544;DHT22;9917;51.256;7.152;2023-02-08T01:56:47;0.60;99.90
19544;DHT22;9917;51.256;7.152;2023-02-08T01:59:16;0.60;99.90
19544;DHT22;9917;51.256;7.152;2023-02-08T02:01:44;0.50;99.90
19544;DHT22;9917;51.256;7.152;2023-02-08T02:04:10;0.70;99.90
19544;DHT22;9917;51.256;7.152;2023-02-08T02:06:41;0.70;99.90
19544;DHT22;9917;51.256;7.152;2023-02-08T02:09:13;0.70;99.90
19544;DHT22;9917;51.256;7.152;2023-02-08T02:11:40;0.60;99.90
19544;DHT22;9917;51.256;7.152;2023-02-08T02:14:07;0.50;99.90
19544;DHT22;9917;51.256;7.152;2023-02-08T02:16:33;0.50;99.90
19544;DHT22;9917;51.256;7.152;2023-02-08T02:18:58;0.50;99.90
19544;DHT22;9917;51.256;7.152;2023-02-08T02:21:38;0.50;99.90
19544;DHT22;9917;51.256;7.152;2023-02-08T02:27:30;0.50;99.90
19544;DHT22;9917;51.256;7.152;2023-02-08T02:30:30;0.50;99.90
19544;DHT22;9917;51.256;7.152;2023-02-08T02:33:09;0.60;99.90
19544;DHT22;9917;51.256;7.152;2023-02-08T02:35:44;0.50;99.90
19544;DHT22;9917;51.256;7.152;2023-02-08T02:38:15;0.50;99.90
19544;DHT22;9917;51.256;7.152;2023-02-08T02:40:53;0.50;99.90
19544;DHT22;9917;51.256;7.152;2023-02-08T02:43:25;0.80;99.90
19544;DHT22;9917;51.256;7.152;2023-02-08T02:45:59;0.60;99.90
19544;DHT22;9917;51.256;7.152;2023-02-08T02:48:31;0.60;99.90
19544;DHT22;9917;51.256;7.152;2023-02-08T02:51:06;0.40;99.90
19544;DHT22;9917;51.256;7.152;2023-02-08T02:53:38;0.40;99.90
19544;DHT22;9917;51.256;7.152;2023-02-08T02:56:09;0.50;99.90
19544;DHT22;9917;51.256;7.152;2023-02-08T02:58:37;0.50;99.90
19544;DHT22;9917;51.256;7.152;2023-02-08T03:01:04;0.50;99.90
19544;DHT22;9917;51.256;7.152;2023-02-08T03:03:32;0.60;99.90
19544;DHT22;9917;51.256;7.152;2023-02-08T03:06:02;0.60;99.90
19544;DHT22;9917;51.256;7.152;2023-02-08T03:11:26;0.50;99.90
19544;DHT22;9917;51.256;7.152;2023-02-08T03:14:02;0.50;99.90
19544;DHT22;9917;51.256;7.152;2023-02-08T03:16:37;0.40;99.90
19544;DHT22;9917;51.256;7.152;2023-02-08T03:19:17;0.30;99.90
19544;DHT22;9917;51.256;7.152;2023-02-08T03:21:50;0.60;99.90
19544;DHT22;9917;51.256;7.152;2023-02-08T03:24:23;0.30;99.90
19544;DHT22;9917;51.256;7.152;2023-02-08T03:26:54;0.50;99.90
19544;DHT22;9917;51.256;7.152;2023-02-08T03:29:31;0.20;99.90
19544;DHT22;9917;51.256;7.152;2023-02-08T03:32:01;0.20;99.90
19544;DHT22;9917;51.256;7.152;2023-02-08T03:34:37;0.30;99.90
19544;DHT22;9917;51.256;7.152;2023-02-08T03:37:09;0.40;99.90
19544;DHT22;9917;51.256;7.152;2023-02-08T03:39:39;0.30;99.90
19544;DHT22;9917;51.256;7.152;2023-02-08T03:42:09;0.20;99.90
19544;DHT22;9917;51.256;7.152;2023-02-08T03:44:38;0.20;99.90
19544;DHT22;9917;51.256;7.152;2023-02-08T03:47:08;0.10;99.90
19544;DHT22;9917;51.256;7.152;2023-02-08T03:49:38;0.20;99.90
19544;DHT22;9917;51.256;7.152;2023-02-08T03:52:08;0.30;99.90
19544;DHT22;9917;51.256;7.152;2023-02-08T03:54:36;0.30;99.90
19544;DHT22;9917;51.256;7.152;2023-02-08T03:57:07;0.30;99.90
19544;DHT22;9917;51.256;7.152;2023-02-08T03:59:38;0.30;99.90
19544;DHT22;9917;51.256;7.152;2023-02-08T04:02:06;0.30;99.90
19544;DHT22;9917;51.256;7.152;2023-02-08T04:04:36;0.20;99.90
19544;DHT22;9917;51.256;7.152;2023-02-08T04:07:05;0.30;99.90
19544;DHT22;9917;51.256;7.152;2023-02-08T04:09:31;0.30;99.90
19544;DHT22;9917;51.256;7.152;2023-02-08T04:11:57;0.30;99.90
19544;DHT22;9917;51.256;7.152;2023-02-08T04:14:22;0.40;99.90
19544;DHT22;9917;51.256;7.152;2023-02-08T04:16:48;0.30;99.90
19544;DHT22;9917;51.256;7.152;2023-02-08T04:19:14;0.20;99.90
19544;DHT22;9917;51.256;7.152;2023-02-08T04:21:39;0.10;99.90
19544;DHT22;9917;51.256;7.152;2023-02-08T04:24:07;0.10;99.90
19544;DHT22;9917;51.256;7.152;2023-02-08T04:26:33;0.20;99.90
19544;DHT22;9917;51.256;7.152;2023-02-08T04:31:24;0.20;99.90
19544;DHT22;9917;51.256;7.152;2023-02-08T04:33:50;0.20;99.90
19544;DHT22;9917;51.256;7.152;2023-02-08T04:36:16;1.00;99.90
19544;DHT22;9917;51.256;7.152;2023-02-08T04:38:44;0.20;99.90
19544;DHT22;9917;51.256;7.152;2023-02-08T04:41:11;0.20;99.90
19544;DHT22;9917;51.256;7.152;2023-02-08T04:43:37;0.20;99.90
19544;DHT22;9917;51.256;7.152;2023-02-08T04:46:03;0.20;99.90
19544;DHT22;9917;51.256;7.152;2023-02-08T04:48:29;0.20;99.90
19544;DHT22;9917;51.256;7.152;2023-02-08T04:50:55;1.80;99.90
19544;DHT22;9917;51.256;7.152;2023-02-08T04:53:20;0.30;99.90
19544;DHT22;9917;51.256;7.152;2023-02-08T04:55:46;0.20;99.90
19544;DHT22;9917;51.256;7.152;2023-02-08T04:58:13;0.20;99.90
19544;DHT22;9917;51.256;7.152;2023-02-08T05:00:39;0.10;99.90
19544;DHT22;9917;51.256;7.152;2023-02-08T05:03:05;0.10;99.90
19544;DHT22;9917;51.256;7.152;2023-02-08T05:05:30;1.20;99.90
19544;DHT22;9917;51.256;7.152;2023-02-08T05:07:56;0.20;99.90
19544;DHT22;9917;51.256;7.152;2023-02-08T05:10:22;0.20;99.90
19544;DHT22;9917;51.256;7.152;2023-02-08T05:12:47;0.20;99.90
19544;DHT22;9917;51.256;7.152;2023-02-08T05:15:14;0.10;99.90
19544;DHT22;9917;51.256;7.152;2023-02-08T05:17:40;0.10;99.90
19544;DHT22;9917;51.256;7.152;2023-02-08T05:20:07;0.20;99.90
19544;DHT22;9917;51.256;7.152;2023-02-08T05:22:33;0.20;99.90
19544;DHT22;9917;51.256;7.152;2023-02-08T05:24:59;0.30;99.90
19544;DHT22;9917;51.256;7.152;2023-02-08T05:27:25;0.80;99.90
19544;DHT22;9917;51.256;7.152;2023-02-08T05:29:51;0.10;99.90
19544;DHT22;9917;51.256;7.152;2023-02-08T05:32:18;0.10;99.90
19544;DHT22;9917;51.256;7.152;2023-02-08T05:34:44;0.00;99.90
19544;DHT22;9917;51.256;7.152;2023-02-08T05:37:10;-0.10;99.90
19544;DHT22;9917;51.256;7.152;2023-02-08T05:39:35;-0.10;99.90
19544;DHT22;9917;51.256;7.152;2023-02-08T05:42:01;-0.10;99.90
19544;DHT22;9917;51.256;7.152;2023-02-08T05:44:27;-0.10;99.90
19544;DHT22;9917;51.256;7.152;2023-02-08T05:46:53;-0.10;99.90
19544;DHT22;9917;51.256;7.152;2023-02-08T05:49:20;0.00;99.90
19544;DHT22;9917;51.256;7.152;2023-02-08T05:51:45;0.00;99.90
19544;DHT22;9917;51.256;7.152;2023-02-08T05:54:11;0.00;99.90
19544;DHT22;9917;51.256;7.152;2023-02-08T05:56:37;0.10;99.90
19544;DHT22;9917;51.256;7.152;2023-02-08T05:59:03;0.30;99.90
19544;DHT22;9917;51.256;7.152;2023-02-08T06:01:29;0.10;99.90
19544;DHT22;9917;51.256;7.152;2023-02-08T06:03:54;0.10;99.90
19544;DHT22;9917;51.256;7.152;2023-02-08T06:06:21;0.00;99.90
19544;DHT22;9917;51.256;7.152;2023-02-08T06:08:47;0.00;99.90
19544;DHT22;9917;51.256;7.152;2023-02-08T06:11:13;0.00;99.90
19544;DHT22;9917;51.256;7.152;2023-02-08T06:13:38;0.20;99.90
19544;DHT22;9917;51.256;7.152;2023-02-08T06:16:05;0.20;99.90
19544;DHT22;9917;51.256;7.152;2023-02-08T06:18:31;0.20;99.90
19544;DHT22;9917;51.256;7.152;2023-02-08T06:20:57;0.20;99.90
19544;DHT22;9917;51.256;7.152;2023-02-08T06:23:24;0.10;99.90
19544;DHT22;9917;51.256;7.152;2023-02-08T06:25:50;0.00;99.90
19544;DHT22;9917;51.256;7.152;2023-02-08T06:28:15;0.00;99.90
19544;DHT22;9917;51.256;7.152;2023-02-08T06:30:41;0.00;99.90
19544;DHT22;9917;51.256;7.152;2023-02-08T06:35:33;-0.10;99.90
19544;DHT22;9917;51.256;7.152;2023-02-08T06:37:59;0.30;99.90
19544;DHT22;9917;51.256;7.152;2023-02-08T06:40:26;1.10;99.90
19544;DHT22;9917;51.256;7.152;2023-02-08T06:45:18;-0.10;99.90
19544;DHT22;9917;51.256;7.152;2023-02-08T06:47:43;0.40;99.90
19544;DHT22;9917;51.256;7.152;2023-02-08T06:50:09;0.00;99.90
19544;DHT22;9917;51.256;7.152;2023-02-08T06:52:35;0.20;99.90
19544;DHT22;9917;51.256;7.152;2023-02-08T06:55:01;0.50;99.90
19544;DHT22;9917;51.256;7.152;2023-02-08T06:57:28;0.60;99.90
19544;DHT22;9917;51.256;7.152;2023-02-08T06:59:54;0.30;99.90
19544;DHT22;9917;51.256;7.152;2023-02-08T07:02:20;0.20;99.90
19544;DHT22;9917;51.256;7.152;2023-02-08T07:04:46;0.10;99.90
19544;DHT22;9917;51.256;7.152;2023-02-08T07:07:13;0.00;99.90
19544;DHT22;9917;51.256;7.152;2023-02-08T07:09:39;0.00;99.90
19544;DHT22;9917;51.256;7.152;2023-02-08T07:12:06;0.10;99.90
19544;DHT22;9917;51.256;7.152;2023-02-08T07:14:34;0.10;99.90
19544;DHT22;9917;51.256;7.152;2023-02-08T07:17:01;0.10;99.90
19544;DHT22;9917;51.256;7.152;2023-02-08T07:19:27;0.10;99.90
19544;DHT22;9917;51.256;7.152;2023-02-08T07:24:19;0.20;99.90
19544;DHT22;9917;51.256;7.152;2023-02-08T07:29:10;0.20;99.90
19544;DHT22;9917;51.256;7.152;2023-02-08T07:31:44;0.20;99.90
19544;DHT22;9917;51.256;7.152;2023-02-08T07:34:09;0.50;99.90
19544;DHT22;9917;51.256;7.152;2023-02-08T07:36:35;1.00;99.90
19544;DHT22;9917;51.256;7.152;2023-02-08T07:39:01;0.20;99.90
19544;DHT22;9917;51.256;7.152;2023-02-08T07:41:27;0.30;99.90
19544;DHT22;9917;51.256;7.152;2023-02-08T07:43:52;0.30;99.90
19544;DHT22;9917;51.256;7.152;2023-02-08T07:46:20;1.50;99.90
19544;DHT22;9917;51.256;7.152;2023-02-08T07:48:47;3.50;99.90
19544;DHT22;9917;51.256;7.152;2023-02-08T07:51:13;3.60;99.90
19544;DHT22;9917;51.256;7.152;2023-02-08T07:53:38;5.10;99.90
19544;DHT22;9917;51.256;7.152;2023-02-08T07:56:05;7.40;99.90
19544;DHT22;9917;51.256;7.152;2023-02-08T07:58:31;7.50;99.90
19544;DHT22;9917;51.256;7.152;2023-02-08T08:00:58;8.60;96.40
19544;DHT22;9917;51.256;7.152;2023-02-08T08:03:23;9.20;92.00
19544;DHT22;9917;51.256;7.152;2023-02-08T08:05:50;9.80;90.00
19544;DHT22;9917;51.256;7.152;2023-02-08T08:08:16;10.40;82.10
19544;DHT22;9917;51.256;7.152;2023-02-08T08:13:08;11.00;78.30
19544;DHT22;9917;51.256;7.152;2023-02-08T08:15:34;10.90;72.70
19544;DHT22;9917;51.256;7.152;2023-02-08T08:17:59;11.60;72.90
19544;DHT22;9917;51.256;7.152;2023-02-08T08:20:26;12.30;70.80
19544;DHT22;9917;51.256;7.152;2023-02-08T08:22:53;13.30;65.70
19544;DHT22;9917;51.256;7.152;2023-02-08T08:25:18;13.70;59.00
19544;DHT22;9917;51.256;7.152;2023-02-08T08:27:44;13.90;58.60
19544;DHT22;9917;51.256;7.152;2023-02-08T08:30:12;14.30;57.90
19544;DHT22;9917;51.256;7.152;2023-02-08T08:32:38;14.70;56.20
19544;DHT22;9917;51.256;7.152;2023-02-08T08:35:05;15.20;53.10
19544;DHT22;9917;51.256;7.152;2023-02-08T08:37:31;15.40;52.40
19544;DHT22;9917;51.256;7.152;2023-02-08T08:39:58;16.00;50.90
19544;DHT22;9917;51.256;7.152;2023-02-08T08:42:24;16.20;49.70
19544;DHT22;9917;51.256;7.152;2023-02-08T08:44:49;16.80;49.40
19544;DHT22;9917;51.256;7.152;2023-02-08T08:47:15;16.70;47.40
19544;DHT22;9917;51.256;7.152;2023-02-08T08:49:41;17.00;45.80
19544;DHT22;9917;51.256;7.152;2023-02-08T08:52:06;16.90;45.10
19544;DHT22;9917;51.256;7.152;2023-02-08T08:54:33;17.20;46.20
19544;DHT22;9917;51.256;7.152;2023-02-08T08:57:00;16.80;44.50
19544;DHT22;9917;51.256;7.152;2023-02-08T08:59:26;16.80;46.30
19544;DHT22;9917;51.256;7.152;2023-02-08T09:01:52;17.60;43.20
19544;DHT22;9917;51.256;7.152;2023-02-08T09:04:17;18.20;43.70
19544;DHT22;9917;51.256;7.152;2023-02-08T09:06:43;18.70;43.50
19544;DHT22;9917;51.256;7.152;2023-02-08T09:09:09;19.30;41.10
19544;DHT22;9917;51.256;7.152;2023-02-08T09:11:35;20.20;39.80
19544;DHT22;9917;51.256;7.152;2023-02-08T09:14:03;20.50;38.50
19544;DHT22;9917;51.256;7.152;2023-02-08T09:16:29;20.80;37.40
19544;DHT22;9917;51.256;7.152;2023-02-08T09:18:55;21.50;37.70
19544;DHT22;9917;51.256;7.152;2023-02-08T09:21:22;21.70;35.10
19544;DHT22;9917;51.256;7.152;2023-02-08T09:23:48;22.00;34.70
19544;DHT22;9917;51.256;7.152;2023-02-08T09:26:16;22.00;34.60
19544;DHT22;9917;51.256;7.152;2023-02-08T09:28:42;22.40;33.50
19544;DHT22;9917;51.256;7.152;2023-02-08T09:31:11;22.60;33.60
19544;DHT22;9917;51.256;7.152;2023-02-08T09:33:40;22.90;32.60
19544;DHT22;9917;51.256;7.152;2023-02-08T09:36:06;23.60;30.00
19544;DHT22;9917;51.256;7.152;2023-02-08T09:38:32;23.50;30.50
19544;DHT22;9917;51.256;7.152;2023-02-08T09:41:07;23.50;30.00
19544;DHT22;9917;51.256;7.152;2023-02-08T09:43:44;23.90;27.30
19544;DHT22;9917;51.256;7.152;2023-02-08T09:46:19;24.30;26.60
19544;DHT22;9917;51.256;7.152;2023-02-08T09:48:47;23.70;24.40
19544;DHT22;9917;51.256;7.152;2023-02-08T09:51:20;23.70;26.40
19544;DHT22;9917;51.256;7.152;2023-02-08T09:53:52;24.40;25.10
19544;DHT22;9917;51.256;7.152;2023-02-08T09:56:23;24.00;23.50
19544;DHT22;9917;51.256;7.152;2023-02-08T09:58:51;24.70;22.80
19544;DHT22;9917;51.256;7.152;2023-02-08T10:01:23;25.40;21.30
19544;DHT22;9917;51.256;7.152;2023-02-08T10:03:52;25.40;22.80
19544;DHT22;9917;51.256;7.152;2023-02-08T10:06:19;25.70;22.10
19544;DHT22;9917;51.256;7.152;2023-02-08T10:08:48;25.90;21.20
19544;DHT22;9917;51.256;7.152;2023-02-08T10:11:32;26.20;22.30
19544;DHT22;9917;51.256;7.152;2023-02-08T10:14:09;26.10;19.10
19544;DHT22;9917;51.256;7.152;2023-02-08T10:16:58;25.50;20.60
19544;DHT22;9917;51.256;7.152;2023-02-08T10:19:32;25.70;20.80
19544;DHT22;9917;51.256;7.152;2023-02-08T10:22:15;25.80;20.80
19544;DHT22;9917;51.256;7.152;2023-02-08T10:25:01;25.50;19.90
19544;DHT22;9917;51.256;7.152;2023-02-08T10:27:40;25.50;18.80
19544;DHT22;9917;51.256;7.152;2023-02-08T10:30:23;25.40;18.50
19544;DHT22;9917;51.256;7.152;2023-02-08T10:32:57;25.40;19.30
19544;DHT22;9917;51.256;7.152;2023-02-08T10:35:26;25.70;18.50
19544;DHT22;9917;51.256;7.152;2023-02-08T10:37:53;25.80;18.30
19544;DHT22;9917;51.256;7.152;2023-02-08T10:40:29;26.70;19.70
19544;DHT22;9917;51.256;7.152;2023-02-08T10:43:04;26.70;17.30
19544;DHT22;9917;51.256;7.152;2023-02-08T10:45:43;26.20;18.00
19544;DHT22;9917;51.256;7.152;2023-02-08T10:48:19;25.50;18.10
19544;DHT22;9917;51.256;7.152;2023-02-08T10:50:47;25.90;18.20
19544;DHT22;9917;51.256;7.152;2023-02-08T10:53:14;26.50;19.20
19544;DHT22;9917;51.256;7.152;2023-02-08T10:55:41;27.20;19.80
19544;DHT22;9917;51.256;7.152;2023-02-08T10:58:13;27.30;18.50
19544;DHT22;9917;51.256;7.152;2023-02-08T11:00:39;27.60;19.00
19544;DHT22;9917;51.256;7.152;2023-02-08T11:03:16;28.30;18.70
19544;DHT22;9917;51.256;7.152;2023-02-08T11:05:42;28.50;18.40
19544;DHT22;9917;51.256;7.152;2023-02-08T11:08:11;28.90;17.50
19544;DHT22;9917;51.256;7.152;2023-02-08T11:10:38;28.50;18.90
19544;DHT22;9917;51.256;7.152;2023-02-08T11:13:16;28.90;18.40
19544;DHT22;9917;51.256;7.152;2023-02-08T11:15:45;29.10;17.10
19544;DHT22;9917;51.256;7.152;2023-02-08T11:18:19;27.70;17.20
19544;DHT22;9917;51.256;7.152;2023-02-08T11:20:48;27.10;17.70
19544;DHT22;9917;51.256;7.152;2023-02-08T11:23:20;27.50;18.60
19544;DHT22;9917;51.256;7.152;2023-02-08T11:25:47;27.50;17.80
19544;DHT22;9917;51.256;7.152;2023-02-08T11:28:25;26.50;15.90
19544;DHT22;9917;51.256;7.152;2023-02-08T11:30:56;25.00;18.10
19544;DHT22;9917;51.256;7.152;2023-02-08T11:33:23;23.90;16.70
19544;DHT22;9917;51.256;7.152;2023-02-08T11:35:59;23.70;17.40
19544;DHT22;9917;51.256;7.152;2023-02-08T11:38:25;22.80;17.60
19544;DHT22;9917;51.256;7.152;2023-02-08T11:40:51;22.40;18.40
19544;DHT22;9917;51.256;7.152;2023-02-08T11:43:21;23.00;18.70
19544;DHT22;9917;51.256;7.152;2023-02-08T11:45:48;21.90;18.00
19544;DHT22;9917;51.256;7.152;2023-02-08T11:48:23;20.60;18.10
19544;DHT22;9917;51.256;7.152;2023-02-08T11:50:54;19.30;19.60
19544;DHT22;9917;51.256;7.152;2023-02-08T11:53:24;18.50;20.00
19544;DHT22;9917;51.256;7.152;2023-02-08T11:56:05;16.20;20.80
19544;DHT22;9917;51.256;7.152;2023-02-08T11:58:31;15.80;21.20
19544;DHT22;9917;51.256;7.152;2023-02-08T12:00:59;14.40;22.40
19544;DHT22;9917;51.256;7.152;2023-02-08T12:03:28;13.70;23.50
19544;DHT22;9917;51.256;7.152;2023-02-08T12:06:05;13.10;24.30
19544;DHT22;9917;51.256;7.152;2023-02-08T12:08:39;12.50;25.40
19544;DHT22;9917;51.256;7.152;2023-02-08T12:11:14;12.50;25.60
19544;DHT22;9917;51.256;7.152;2023-02-08T12:16:58;11.90;25.80
19544;DHT22;9917;51.256;7.152;2023-02-08T12:22:22;11.40;27.80
19544;DHT22;9917;51.256;7.152;2023-02-08T12:24:51;11.40;28.10
19544;DHT22;9917;51.256;7.152;2023-02-08T12:27:29;11.20;27.30
19544;DHT22;9917;51.256;7.152;2023-02-08T12:30:02;11.30;27.80
19544;DHT22;9917;51.256;7.152;2023-02-08T12:32:44;11.30;28.20
19544;DHT22;9917;51.256;7.152;2023-02-08T12:35:45;11.30;28.50
19544;DHT22;9917;51.256;7.152;2023-02-08T12:38:18;11.00;28.20
19544;DHT22;9917;51.256;7.152;2023-02-08T12:40:53;11.00;28.70
19544;DHT22;9917;51.256;7.152;2023-02-08T12:43:34;10.90;29.30
19544;DHT22;9917;51.256;7.152;2023-02-08T12:46:20;11.70;30.30
19544;DHT22;9917;51.256;7.152;2023-02-08T12:49:05;10.70;30.30
19544;DHT22;9917;51.256;7.152;2023-02-08T12:51:39;10.70;30.30
19544;DHT22;9917;51.256;7.152;2023-02-08T12:54:08;10.60;29.10
19544;DHT22;9917;51.256;7.152;2023-02-08T12:56:37;10.80;30.00
19544;DHT22;9917;51.256;7.152;2023-02-08T12:59:05;10.60;30.20
19544;DHT22;9917;51.256;7.152;2023-02-08T13:01:35;10.50;29.60
19544;DHT22;9917;51.256;7.152;2023-02-08T13:04:06;10.50;29.40
19544;DHT22;9917;51.256;7.152;2023-02-08T13:06:38;10.40;30.20
19544;DHT22;9917;51.256;7.152;2023-02-08T13:09:14;10.50;30.20
19544;DHT22;9917;51.256;7.152;2023-02-08T13:11:44;10.40;31.30
19544;DHT22;9917;51.256;7.152;2023-02-08T13:14:24;10.40;31.00
19544;DHT22;9917;51.256;7.152;2023-02-08T13:16:54;10.30;29.60
19544;DHT22;9917;51.256;7.152;2023-02-08T13:19:25;10.30;30.40
19544;DHT22;9917;51.256;7.152;2023-02-08T13:21:55;10.20;30.00
19544;DHT22;9917;51.256;7.152;2023-02-08T13:24:28;10.10;31.80
19544;DHT22;9917;51.256;7.152;2023-02-08T13:26:56;10.00;29.10
19544;DHT22;9917;51.256;7.152;2023-02-08T13:29:22;10.10;29.40
19544;DHT22;9917;51.256;7.152;2023-02-08T13:31:55;10.10;29.90
19544;DHT22;9917;51.256;7.152;2023-02-08T13:34:30;10.10;29.70
19544;DHT22;9917;51.256;7.152;2023-02-08T13:36:59;9.90;30.10
19544;DHT22;9917;51.256;7.152;2023-02-08T13:39:34;9.80;29.70
19544;DHT22;9917;51.256;7.152;2023-02-08T13:42:03;9.80;30.10
19544;DHT22;9917;51.256;7.152;2023-02-08T13:44:31;9.90;30.50
19544;DHT22;9917;51.256;7.152;2023-02-08T13:46:58;9.90;29.80
19544;DHT22;9917;51.256;7.152;2023-02-08T13:49:51;9.90;30.20
19544;DHT22;9917;51.256;7.152;2023-02-08T13:52:49;9.80;31.40
19544;DHT22;9917;51.256;7.152;2023-02-08T13:55:50;9.60;32.30
19544;DHT22;9917;51.256;7.152;2023-02-08T13:58:57;9.50;32.00
19544;DHT22;9917;51.256;7.152;2023-02-08T14:01:25;9.40;32.40
19544;DHT22;9917;51.256;7.152;2023-02-08T14:04:15;9.50;33.00
19544;DHT22;9917;51.256;7.152;2023-02-08T14:06:46;9.50;31.80
19544;DHT22;9917;51.256;7.152;2023-02-08T14:09:19;9.30;31.40
19544;DHT22;9917;51.256;7.152;2023-02-08T14:11:48;9.50;30.10
19544;DHT22;9917;51.256;7.152;2023-02-08T14:14:17;9.40;30.50
19544;DHT22;9917;51.256;7.152;2023-02-08T14:16:45;9.40;33.20
19544;DHT22;9917;51.256;7.152;2023-02-08T14:19:22;9.30;33.60
19544;DHT22;9917;51.256;7.152;2023-02-08T14:21:58;9.30;31.40
19544;DHT22;9917;51.256;7.152;2023-02-08T14:24:28;9.30;31.90
19544;DHT22;9917;51.256;7.152;2023-02-08T14:27:05;9.30;31.40
19544;DHT22;9917;51.256;7.152;2023-02-08T14:29:31;9.10;33.20
19544;DHT22;9917;51.256;7.152;2023-02-08T14:31:58;9.10;32.70
19544;DHT22;9917;51.256;7.152;2023-02-08T14:34:27;9.10;32.30
19544;DHT22;9917;51.256;7.152;2023-02-08T14:39:40;9.20;31.10
19544;DHT22;9917;51.256;7.152;2023-02-08T14:42:07;9.20;31.80
19544;DHT22;9917;51.256;7.152;2023-02-08T14:45:02;9.20;32.40
19544;DHT22;9917;51.256;7.152;2023-02-08T14:48:15;9.10;31.60
19544;DHT22;9917;51.256;7.152;2023-02-08T14:50:51;9.00;31.90
19544;DHT22;9917;51.256;7.152;2023-02-08T14:53:30;9.00;33.30
19544;DHT22;9917;51.256;7.152;2023-02-08T14:56:04;9.00;33.30
19544;DHT22;9917;51.256;7.152;2023-02-08T14:58:34;8.90;34.00
19544;DHT22;9917;51.256;7.152;2023-02-08T15:01:04;9.00;33.00
19544;DHT22;9917;51.256;7.152;2023-02-08T15:03:31;8.90;31.90
19544;DHT22;9917;51.256;7.152;2023-02-08T15:08:51;8.90;33.30
19544;DHT22;9917;51.256;7.152;2023-02-08T15:11:24;8.80;33.40
19544;DHT22;9917;51.256;7.152;2023-02-08T15:13:53;8.70;32.50
19544;DHT22;9917;51.256;7.152;2023-02-08T15:16:19;8.80;32.90
19544;DHT22;9917;51.256;7.152;2023-02-08T15:18:46;9.40;33.00
19544;DHT22;9917;51.256;7.152;2023-02-08T15:21:16;10.30;33.20
19544;DHT22;9917;51.256;7.152;2023-02-08T15:23:57;10.90;31.80
19544;DHT22;9917;51.256;7.152;2023-02-08T15:26:24;10.90;30.70
19544;DHT22;9917;51.256;7.152;2023-02-08T15:28:50;10.40;30.30
19544;DHT22;9917;51.256;7.152;2023-02-08T15:31:18;10.10;32.60
19544;DHT22;9917;51.256;7.152;2023-02-08T15:33:45;9.80;32.80
19544;DHT22;9917;51.256;7.152;2023-02-08T15:36:16;9.50;33.30
19544;DHT22;9917;51.256;7.152;2023-02-08T15:38:42;9.20;32.50
19544;DHT22;9917;51.256;7.152;2023-02-08T15:41:11;9.00;33.40
19544;DHT22;9917;51.256;7.152;2023-02-08T15:43:40;8.70;33.70
19544;DHT22;9917;51.256;7.152;2023-02-08T15:46:16;8.50;34.70
19544;DHT22;9917;51.256;7.152;2023-02-08T15:48:43;8.50;34.90
19544;DHT22;9917;51.256;7.152;2023-02-08T15:51:11;8.40;35.90
19544;DHT22;9917;51.256;7.152;2023-02-08T15:53:40;8.30;36.00
19544;DHT22;9917;51.256;7.152;2023-02-08T15:56:06;8.20;36.60
19544;DHT22;9917;51.256;7.152;2023-02-08T15:58:36;8.10;36.10
19544;DHT22;9917;51.256;7.152;2023-02-08T16:01:06;8.00;36.90
19544;DHT22;9917;51.256;7.152;2023-02-08T16:03:33;7.90;37.30
19544;DHT22;9917;51.256;7.152;2023-02-08T16:06:02;7.90;37.20
19544;DHT22;9917;51.256;7.152;2023-02-08T16:08:31;7.80;36.10
19544;DHT22;9917;51.256;7.152;2023-02-08T16:10:59;7.80;36.80
19544;DHT22;9917;51.256;7.152;2023-02-08T16:13:28;7.70;38.10
19544;DHT22;9917;51.256;7.152;2023-02-08T16:15:56;7.80;37.70
19544;DHT22;9917;51.256;7.152;2023-02-08T16:18:38;8.00;36.00
19544;DHT22;9917;51.256;7.152;2023-02-08T16:21:19;7.70;38.80
19544;DHT22;9917;51.256;7.152;2023-02-08T16:23:49;7.60;39.50
19544;DHT22;9917;51.256;7.152;2023-02-08T16:26:19;7.60;38.80
19544;DHT22;9917;51.256;7.152;2023-02-08T16:28:52;7.40;41.40
19544;DHT22;9917;51.256;7.152;2023-02-08T16:31:21;7.40;39.00
19544;DHT22;9917;51.256;7.152;2023-02-08T16:33:56;7.20;39.60
19544;DHT22;9917;51.256;7.152;2023-02-08T16:36:23;7.00;41.70
19544;DHT22;9917;51.256;7.152;2023-02-08T16:39:22;6.90;41.10
19544;DHT22;9917;51.256;7.152;2023-02-08T16:42:00;6.80;43.10
19544;DHT22;9917;51.256;7.152;2023-02-08T16:44:28;6.80;43.60
19544;DHT22;9917;51.256;7.152;2023-02-08T16:46:54;6.70;43.40
19544;DHT22;9917;51.256;7.152;2023-02-08T16:49:21;6.60;44.60